createdAt,value
2022-11-13T00:05:08.850Z,99.9
2022-11-13T00:07:10.616Z,99.9
2022-11-13T00:09:15.472Z,99.9
2022-11-13T00:13:18.850Z,99.9
2022-11-13T00:14:21.342Z,99.9
2022-11-13T00:16:23.001Z,99.9
2022-11-13T00:18:24.817Z,99.9
2022-11-13T00:20:26.363Z,99.9
2022-11-13T00:22:31.292Z,99.9
2022-11-13T00:28:36.361Z,99.9
2022-11-13T00:30:38.036Z,99.9
2022-11-13T00:32:39.726Z,99.9
2022-11-13T00:34:47.784Z,99.9
2022-11-13T00:36:46.345Z,99.9
2022-11-13T00:38:48.025Z,99.9
2022-11-13T00:40:49.718Z,99.9
2022-11-13T00:42:51.382Z,99.9
2022-11-13T00:44:53.076Z,99.9
2022-11-13T00:46:54.778Z,99.9
2022-11-13T00:51:01.383Z,99.9
2022-11-13T00:53:03.082Z,99.9
2022-11-13T00:55:04.743Z,99.9
2022-11-13T00:59:08.110Z,99.9
2022-11-13T01:01:09.848Z,99.9
2022-11-13T01:03:11.475Z,99.9
2022-11-13T01:10:22.201Z,99.9
2022-11-13T01:18:32.193Z,99.9
2022-11-13T01:24:37.220Z,99.9
2022-11-13T01:26:38.910Z,99.9
2022-11-13T01:28:40.589Z,99.9
2022-11-13T01:30:42.278Z,99.9
2022-11-13T01:32:47.198Z,99.9
2022-11-13T01:34:48.855Z,99.9
2022-11-13T01:36:50.524Z,99.9
2022-11-13T01:38:52.214Z,99.9
2022-11-13T01:40:53.894Z,99.9
2022-11-13T01:42:55.557Z,99.9
2022-11-13T01:44:57.274Z,99.9
2022-11-13T01:47:02.139Z,99.9
2022-11-13T01:49:03.830Z,99.9
2022-11-13T01:51:05.504Z,99.9
2022-11-13T01:53:07.160Z,99.9
2022-11-13T01:55:08.854Z,99.9
2022-11-13T01:57:10.525Z,99.9
2022-11-13T01:59:12.217Z,99.9
2022-11-13T02:01:17.190Z,99.9
2022-11-13T02:03:18.791Z,99.9
2022-11-13T02:05:20.439Z,99.9
2022-11-13T02:07:49.030Z,99.9
2022-11-13T02:09:50.714Z,99.9
2022-11-13T02:11:52.364Z,99.9
2022-11-13T02:15:58.969Z,99.9
2022-11-13T02:18:00.611Z,99.9
2022-11-13T02:20:02.281Z,99.9
2022-11-13T02:22:03.962Z,99.9
2022-11-13T02:24:05.613Z,99.9
2022-11-13T02:26:07.285Z,99.9
2022-11-13T02:28:12.183Z,99.9
2022-11-13T02:30:16.067Z,99.9
2022-11-13T02:32:15.532Z,99.9
2022-11-13T02:34:17.187Z,99.9
2022-11-13T02:36:18.856Z,99.9
2022-11-13T02:38:20.525Z,99.9
2022-11-13T02:40:22.184Z,99.9
2022-11-13T02:42:27.089Z,99.9
2022-11-13T02:44:28.746Z,99.9
2022-11-13T02:46:30.420Z,99.9
2022-11-13T02:48:32.081Z,99.9
2022-11-13T02:52:35.407Z,99.9
2022-11-13T02:54:37.044Z,99.9
2022-11-13T02:56:41.968Z,99.9
2022-11-13T02:58:43.620Z,99.9
2022-11-13T03:00:45.292Z,99.9
2022-11-13T03:01:47.766Z,99.9
2022-11-13T03:03:57.404Z,99.9
2022-11-13T03:05:51.076Z,99.9
2022-11-13T03:07:52.731Z,99.9
2022-11-13T03:09:57.626Z,99.9
2022-11-13T03:11:59.310Z,99.9
2022-11-13T03:14:00.947Z,99.9
2022-11-13T03:16:02.616Z,99.9
2022-11-13T03:18:04.267Z,99.9
2022-11-13T03:20:05.959Z,99.9
2022-11-13T03:22:07.605Z,99.9
2022-11-13T03:24:12.503Z,99.9
2022-11-13T03:26:14.169Z,99.9
2022-11-13T03:28:15.829Z,99.9
2022-11-13T03:30:17.480Z,99.9
2022-11-13T03:32:19.154Z,99.9
2022-11-13T03:34:20.825Z,99.9
2022-11-13T03:36:22.491Z,99.9
2022-11-13T03:38:27.806Z,99.9
2022-11-13T03:40:29.016Z,99.9
2022-11-13T03:42:30.675Z,99.9
2022-11-13T03:44:32.353Z,99.9
2022-11-13T03:46:33.987Z,99.9
2022-11-13T03:48:35.638Z,99.9
2022-11-13T03:50:41.452Z,99.9
2022-11-13T03:52:42.186Z,99.9
2022-11-13T03:54:43.978Z,99.9
2022-11-13T03:56:45.475Z,99.9
2022-11-13T03:59:49.579Z,99.9
2022-11-13T04:01:51.253Z,99.9
2022-11-13T04:03:52.886Z,99.9
2022-11-13T04:05:57.769Z,99.9
2022-11-13T04:07:59.425Z,99.9
2022-11-13T04:10:01.096Z,99.9
2022-11-13T04:12:02.729Z,99.9
2022-11-13T04:14:04.379Z,99.9
2022-11-13T04:16:06.028Z,99.9
2022-11-13T04:20:12.544Z,99.9
2022-11-13T04:22:14.174Z,99.9
2022-11-13T04:24:15.825Z,99.9
2022-11-13T04:26:17.476Z,99.9
2022-11-13T04:28:19.138Z,99.9
2022-11-13T04:30:20.776Z,99.9
2022-11-13T04:34:28.854Z,99.9
2022-11-13T04:36:30.423Z,99.9
2022-11-13T04:38:32.368Z,99.9
2022-11-13T04:40:33.835Z,99.9
2022-11-13T04:42:35.365Z,99.9
2022-11-13T04:44:36.977Z,99.9
2022-11-13T04:46:38.616Z,99.9
2022-11-13T04:48:43.501Z,99.9
2022-11-13T04:50:45.138Z,99.9
2022-11-13T04:52:46.795Z,99.9
2022-11-13T04:53:49.206Z,99.9
2022-11-13T04:59:54.125Z,99.9
2022-11-13T05:08:03.935Z,99.9
2022-11-13T05:10:05.555Z,99.9
2022-11-13T05:12:07.190Z,99.9
2022-11-13T05:14:08.838Z,99.9
2022-11-13T05:16:13.697Z,99.9
2022-11-13T05:18:15.343Z,99.9
2022-11-13T05:20:16.981Z,99.9
2022-11-13T05:22:18.614Z,99.9
2022-11-13T05:24:20.246Z,99.9
2022-11-13T05:28:23.506Z,99.9
2022-11-13T05:32:30.000Z,99.9
2022-11-13T05:36:33.245Z,99.9
2022-11-13T05:38:34.872Z,99.9
2022-11-13T05:40:36.488Z,99.9
2022-11-13T05:42:38.078Z,99.9
2022-11-13T05:44:42.963Z,99.9
2022-11-13T05:46:44.573Z,99.9
2022-11-13T05:48:46.189Z,99.9
2022-11-13T05:51:14.818Z,99.9
2022-11-13T05:53:16.426Z,99.9
2022-11-13T05:55:22.198Z,99.9
2022-11-13T05:57:22.914Z,99.9
2022-11-13T05:59:24.538Z,99.9
2022-11-13T06:01:26.166Z,99.9
2022-11-13T06:03:27.772Z,99.9
2022-11-13T06:05:29.453Z,99.9
2022-11-13T06:07:31.009Z,99.9
2022-11-13T06:09:32.635Z,99.9
2022-11-13T06:11:37.485Z,99.9
2022-11-13T06:13:39.103Z,99.9
2022-11-13T06:15:40.723Z,99.9
2022-11-13T06:17:42.326Z,99.9
2022-11-13T06:19:43.931Z,99.9
2022-11-13T06:21:45.567Z,99.9
2022-11-13T06:23:47.160Z,99.9
2022-11-13T06:25:52.008Z,99.9
2022-11-13T06:27:53.628Z,99.9
2022-11-13T06:29:55.250Z,99.9
2022-11-13T06:31:56.864Z,99.9
2022-11-13T06:33:58.472Z,99.9
2022-11-13T06:36:00.135Z,99.9
2022-11-13T06:38:01.730Z,99.9
2022-11-13T06:40:06.541Z,99.9
2022-11-13T06:42:08.161Z,99.9
2022-11-13T06:44:09.771Z,99.9
2022-11-13T06:47:13.811Z,99.9
2022-11-13T06:49:15.415Z,99.9
2022-11-13T06:51:17.023Z,99.9
2022-11-13T06:53:21.886Z,99.9
2022-11-13T06:55:23.487Z,99.9
2022-11-13T06:57:25.104Z,99.9
2022-11-13T06:59:26.828Z,99.9
2022-11-13T07:01:28.376Z,99.9
2022-11-13T07:03:29.918Z,99.9
2022-11-13T07:05:31.549Z,99.9
2022-11-13T07:07:36.391Z,99.9
2022-11-13T07:09:38.008Z,99.9
2022-11-13T07:11:39.606Z,99.9
2022-11-13T07:13:41.205Z,99.9
2022-11-13T07:15:42.798Z,99.9
2022-11-13T07:17:44.419Z,99.9
2022-11-13T07:19:46.153Z,99.9
2022-11-13T07:21:50.860Z,99.9
2022-11-13T07:23:52.473Z,99.9
2022-11-13T07:25:54.059Z,99.9
2022-11-13T07:27:55.659Z,99.9
2022-11-13T07:30:00.863Z,99.9
2022-11-13T07:34:00.485Z,99.9
2022-11-13T07:36:05.317Z,99.9
2022-11-13T07:38:06.934Z,99.9
2022-11-13T07:41:10.954Z,99.9
2022-11-13T07:43:12.584Z,99.9
2022-11-13T07:45:14.158Z,99.9
2022-11-13T07:47:15.793Z,99.9
2022-11-13T07:49:20.639Z,99.9
2022-11-13T07:51:22.239Z,99.9
2022-11-13T07:53:23.848Z,99.9
2022-11-13T07:55:25.464Z,99.9
2022-11-13T07:57:27.076Z,99.9
2022-11-13T07:59:28.691Z,99.9
2022-11-13T08:01:30.345Z,99.9
2022-11-13T08:03:35.139Z,99.9
2022-11-13T08:05:36.780Z,99.9
2022-11-13T08:07:38.403Z,99.9
2022-11-13T08:09:40.024Z,99.9
2022-11-13T08:13:43.323Z,99.9
2022-11-13T08:15:44.967Z,99.9
2022-11-13T08:17:49.890Z,99.9
2022-11-13T08:19:51.552Z,99.9
2022-11-13T08:21:53.231Z,99.9
2022-11-13T08:23:54.934Z,99.4
2022-11-13T08:25:56.627Z,90.8
2022-11-13T08:27:58.342Z,95.8
2022-11-13T08:30:00.037Z,96.6
2022-11-13T08:32:04.989Z,96.8
2022-11-13T08:34:06.687Z,96.1
2022-11-13T08:36:08.417Z,99.1
2022-11-13T08:37:10.922Z,99.1
2022-11-13T08:39:12.634Z,98.3
2022-11-13T08:41:14.360Z,97.1
2022-11-13T08:43:16.114Z,95.4
2022-11-13T08:45:21.094Z,99.8
2022-11-13T08:47:28.300Z,99.8
2022-11-13T08:49:24.570Z,99.8
2022-11-13T08:51:26.335Z,99.8
2022-11-13T08:53:28.084Z,99.8
2022-11-13T08:55:29.839Z,99.8
2022-11-13T08:57:31.710Z,99.9
2022-11-13T08:59:36.563Z,99.9
2022-11-13T09:01:38.304Z,99.9
2022-11-13T09:03:40.192Z,99.9
2022-11-13T09:05:41.808Z,99.9
2022-11-13T09:07:43.553Z,99.9
2022-11-13T09:09:45.305Z,99.7
2022-11-13T09:11:47.060Z,96.4
2022-11-13T09:13:53.497Z,92.6
2022-11-13T09:15:53.805Z,90.9
2022-11-13T09:17:55.565Z,79.6
2022-11-13T09:20:02.168Z,77.9
2022-11-13T09:24:00.842Z,65.8
2022-11-13T09:34:39.834Z,64.2
2022-11-13T09:38:43.418Z,69.9
2022-11-13T09:42:50.248Z,67.7
2022-11-13T09:44:52.052Z,73.4
2022-11-13T09:46:53.847Z,74.3
2022-11-13T09:48:55.657Z,75.3
2022-11-13T09:50:57.444Z,86.2
2022-11-13T09:52:59.249Z,75.4
2022-11-13T09:55:04.293Z,68.4
2022-11-13T10:05:13.357Z,69.2
2022-11-13T10:15:25.651Z,60
2022-11-13T10:19:29.270Z,56.4
2022-11-13T10:23:36.187Z,54.8
2022-11-13T10:25:39.522Z,54.6
2022-11-13T10:27:41.430Z,53.4
2022-11-13T10:28:50.604Z,53.5
2022-11-13T10:30:45.645Z,53.8
2022-11-13T10:32:47.459Z,53.8
2022-11-13T10:34:49.293Z,53.6
2022-11-13T10:36:54.356Z,50.3
2022-11-13T10:38:56.175Z,50.3
2022-11-13T10:40:57.986Z,50.2
2022-11-13T10:42:59.813Z,54.1
2022-11-13T10:47:03.475Z,52.1
2022-11-13T10:49:05.290Z,51.8
2022-11-13T10:55:14.006Z,50.4
2022-11-13T10:57:15.837Z,49.5
2022-11-13T11:05:26.383Z,47.8
2022-11-13T11:13:33.685Z,50
2022-11-13T11:21:44.244Z,46.4
2022-11-13T11:23:45.964Z,45.9
2022-11-13T11:30:53.888Z,44.6
2022-11-13T11:39:04.245Z,42.8
2022-11-13T11:41:05.938Z,42.3
2022-11-13T11:43:07.699Z,41.5
2022-11-13T11:45:09.384Z,41.2
2022-11-13T11:47:14.362Z,40.3
2022-11-13T11:49:16.073Z,39.4
2022-11-13T11:51:17.805Z,39.3
2022-11-13T11:53:19.514Z,39.3
2022-11-13T11:55:21.231Z,39.6
2022-11-13T11:57:22.925Z,39.8
2022-11-13T11:59:24.655Z,40.4
2022-11-13T12:05:33.231Z,40.6
2022-11-13T12:07:34.885Z,39.3
2022-11-13T12:09:36.592Z,39.3
2022-11-13T12:11:38.314Z,39.1
2022-11-13T12:13:40.138Z,38.9
2022-11-13T12:15:44.996Z,39.3
2022-11-13T12:17:46.700Z,39.7
2022-11-13T12:19:48.433Z,40
2022-11-13T12:22:52.580Z,39.8
2022-11-13T12:24:54.290Z,39.8
2022-11-13T12:26:56.026Z,42.5
2022-11-13T12:29:00.972Z,44.4
2022-11-13T12:31:02.692Z,44.5
2022-11-13T12:33:04.436Z,43.1
2022-11-13T12:35:06.117Z,40.9
2022-11-13T12:37:07.989Z,39.8
2022-11-13T12:39:09.563Z,39.6
2022-11-13T12:41:11.386Z,39.1
2022-11-13T12:43:16.240Z,39.2
2022-11-13T12:45:17.944Z,39.2
2022-11-13T12:47:19.669Z,39.3
2022-11-13T12:49:21.376Z,39.1
2022-11-13T12:51:23.088Z,38.7
2022-11-13T12:53:24.837Z,38.3
2022-11-13T12:55:26.513Z,38.1
2022-11-13T12:57:31.408Z,37.7
2022-11-13T12:59:33.129Z,37.9
2022-11-13T13:01:34.894Z,37.8
2022-11-13T13:03:36.568Z,38
2022-11-13T13:05:38.261Z,38.6
2022-11-13T13:07:39.978Z,46.5
2022-11-13T13:09:41.700Z,48.2
2022-11-13T13:11:46.563Z,56
2022-11-13T13:13:48.264Z,57.3
2022-11-13T13:15:50.002Z,58.7
2022-11-13T13:18:18.404Z,60.6
2022-11-13T13:20:20.102Z,61.8
2022-11-13T13:22:21.872Z,62.1
2022-11-13T13:24:26.691Z,65
2022-11-13T13:26:28.400Z,67.2
2022-11-13T13:28:30.646Z,68.4
2022-11-13T13:30:32.046Z,69.2
2022-11-13T13:32:33.861Z,70
2022-11-13T13:34:35.615Z,70.5
2022-11-13T13:36:37.299Z,70.8
2022-11-13T13:38:42.297Z,72.2
2022-11-13T13:40:44.080Z,72.9
2022-11-13T13:42:45.828Z,73.3
2022-11-13T13:44:47.621Z,73.4
2022-11-13T13:46:49.462Z,73.8
2022-11-13T13:48:51.282Z,74.4
2022-11-13T13:50:53.101Z,75.4
2022-11-13T13:52:58.199Z,85.8
2022-11-13T13:54:59.989Z,88.2
2022-11-13T13:57:01.821Z,90.5
2022-11-13T13:59:03.626Z,91.9
2022-11-13T14:01:18.328Z,92.7
2022-11-13T14:03:07.259Z,93.4
2022-11-13T14:05:09.099Z,93.8
2022-11-13T14:07:14.294Z,95.5
2022-11-13T14:09:15.952Z,96.3
2022-11-13T14:11:17.799Z,97.7
2022-11-13T14:16:23.966Z,99.1
2022-11-13T14:18:26.036Z,99.5
2022-11-13T14:20:30.837Z,99.9
2022-11-13T14:22:32.667Z,99.9
2022-11-13T14:24:34.555Z,99.9
2022-11-13T14:26:36.310Z,99.9
2022-11-13T14:28:38.129Z,99.9
2022-11-13T14:32:46.728Z,99.9
2022-11-13T14:34:46.812Z,99.9
2022-11-13T14:36:48.861Z,99.9
2022-11-13T14:38:52.065Z,99.9
2022-11-13T14:40:52.266Z,99.9
2022-11-13T14:42:54.091Z,99.9
2022-11-13T14:44:55.898Z,99.9
2022-11-13T14:46:57.718Z,99.9
2022-11-13T14:49:02.794Z,99.9
2022-11-13T14:51:04.633Z,99.9
2022-11-13T14:53:06.424Z,99.9
2022-11-13T14:55:15.347Z,99.9
2022-11-13T14:57:10.089Z,99.9
2022-11-13T15:01:13.692Z,99.9
2022-11-13T15:05:20.551Z,99.9
2022-11-13T15:07:22.443Z,99.9
2022-11-13T15:08:24.892Z,99.9
2022-11-13T15:10:26.702Z,99.9
2022-11-13T15:12:28.525Z,99.9
2022-11-13T15:14:30.347Z,99.9
2022-11-13T15:16:35.404Z,99.9
2022-11-13T15:26:44.424Z,99.9
2022-11-13T15:28:46.215Z,99.9
2022-11-13T15:30:51.304Z,99.9
2022-11-13T15:32:53.116Z,99.9
2022-11-13T15:34:54.905Z,99.9
2022-11-13T15:36:56.716Z,99.9
2022-11-13T15:39:00.388Z,99.9
2022-11-13T15:41:00.353Z,99.9
2022-11-13T15:43:02.131Z,99.9
2022-11-13T15:45:07.182Z,99.9
2022-11-13T15:47:08.980Z,99.9
2022-11-13T15:49:10.768Z,99.9
2022-11-13T15:51:12.572Z,99.9
2022-11-13T15:53:14.399Z,99.9
2022-11-13T15:55:16.182Z,99.9
2022-11-13T15:57:18.013Z,99.9
2022-11-13T15:59:23.005Z,99.9
2022-11-13T16:01:24.855Z,99.9
2022-11-13T16:03:26.922Z,99.9
2022-11-13T16:04:50.446Z,99.9
2022-11-13T16:06:30.911Z,99.9
2022-11-13T16:08:32.696Z,99.9
2022-11-13T16:10:34.485Z,99.9
2022-11-13T16:12:39.504Z,99.9
2022-11-13T16:14:41.302Z,99.9
2022-11-13T16:16:44.740Z,99.9
2022-11-13T16:18:46.413Z,99.9
2022-11-13T16:20:48.175Z,99.9
2022-11-13T16:22:49.985Z,99.9
2022-11-13T16:24:51.780Z,99.9
2022-11-13T16:26:56.950Z,99.9
2022-11-13T16:29:13.339Z,99.9
2022-11-13T16:31:00.376Z,99.9
2022-11-13T16:33:02.158Z,99.9
2022-11-13T16:35:03.945Z,99.9
2022-11-13T16:37:05.717Z,99.9
2022-11-13T16:39:07.519Z,99.9
2022-11-13T16:41:12.538Z,99.9
2022-11-13T16:43:14.343Z,99.9
2022-11-13T16:45:16.115Z,99.9
2022-11-13T16:47:17.874Z,99.9
2022-11-13T16:49:19.653Z,99.9
2022-11-13T16:51:21.442Z,99.9
2022-11-13T16:53:23.232Z,99.9
2022-11-13T16:55:28.237Z,99.9
2022-11-13T16:57:30.046Z,99.9
2022-11-13T16:59:31.814Z,99.9
2022-11-13T17:02:00.502Z,99.9
2022-11-13T17:04:02.224Z,99.9
2022-11-13T17:06:03.996Z,99.9
2022-11-13T17:08:09.006Z,99.9
2022-11-13T17:14:14.297Z,99.9
2022-11-13T17:18:17.864Z,99.9
2022-11-13T17:20:19.632Z,99.9
2022-11-13T17:22:24.620Z,99.9
2022-11-13T17:24:26.382Z,99.9
2022-11-13T17:26:28.153Z,99.9
2022-11-13T17:28:29.966Z,99.9
2022-11-13T17:30:31.685Z,99.9
2022-11-13T17:32:33.449Z,99.9
2022-11-13T17:34:35.198Z,99.9
2022-11-13T17:36:40.201Z,99.9
2022-11-13T17:38:41.954Z,99.9
2022-11-13T17:42:45.455Z,99.9
2022-11-13T17:48:50.708Z,99.9
2022-11-13T17:56:01.658Z,99.9
2022-11-13T17:58:03.420Z,99.9
2022-11-13T18:00:05.148Z,99.9
2022-11-13T18:06:15.529Z,99.9
2022-11-13T18:08:15.328Z,99.9
2022-11-13T18:10:17.089Z,99.9
2022-11-13T18:12:18.839Z,99.9
2022-11-13T18:16:22.303Z,99.9
2022-11-13T18:20:29.006Z,99.9
2022-11-13T18:26:34.200Z,99.9
2022-11-13T18:28:35.927Z,99.9
2022-11-13T18:30:37.660Z,99.9
2022-11-13T18:34:44.364Z,99.9
2022-11-13T18:42:51.245Z,99.9
2022-11-13T18:44:52.971Z,99.9
2022-11-13T18:46:57.940Z,99.9
2022-11-13T18:48:59.657Z,99.9
2022-11-13T18:51:01.401Z,99.9
2022-11-13T18:52:03.888Z,99.9
2022-11-13T18:54:09.683Z,99.9
2022-11-13T18:56:07.318Z,99.9
2022-11-13T19:00:14.005Z,99.9
2022-11-13T19:02:15.750Z,99.9
2022-11-13T19:04:24.455Z,99.9
2022-11-13T19:06:19.148Z,99.9
2022-11-13T19:12:24.300Z,99.9
2022-11-13T19:14:29.262Z,99.9
2022-11-13T19:16:30.963Z,99.9
2022-11-13T19:18:32.692Z,99.9
2022-11-13T19:20:34.403Z,99.9
2022-11-13T19:22:36.132Z,99.9
2022-11-13T19:28:44.498Z,99.9
2022-11-13T19:30:46.197Z,99.9
2022-11-13T19:34:49.618Z,99.9
2022-11-13T19:40:54.748Z,99.9
2022-11-13T19:45:01.392Z,99.9
2022-11-13T19:48:05.558Z,99.9
2022-11-13T19:50:07.271Z,99.9
2022-11-13T19:52:08.974Z,99.9
2022-11-13T19:54:10.699Z,99.9
2022-11-13T19:56:15.598Z,99.9
2022-11-13T19:58:17.289Z,99.9
2022-11-13T20:00:18.982Z,99.9
2022-11-13T20:02:20.690Z,99.9
2022-11-13T20:04:22.357Z,99.9
2022-11-13T20:06:24.067Z,99.9
2022-11-13T20:08:27.927Z,99.9
2022-11-13T20:10:30.683Z,99.9
2022-11-13T20:12:32.361Z,99.9
2022-11-13T20:14:38.203Z,99.9
2022-11-13T20:16:35.761Z,99.9
2022-11-13T20:18:37.464Z,99.9
2022-11-13T20:20:39.121Z,99.9
2022-11-13T20:22:40.818Z,99.9
2022-11-13T20:24:45.741Z,99.9
2022-11-13T20:32:52.483Z,99.9
2022-11-13T20:34:54.186Z,99.9
2022-11-13T20:36:55.852Z,99.9
2022-11-13T20:43:04.135Z,99.9
2022-11-13T20:45:32.746Z,99.9
2022-11-13T20:47:34.378Z,99.9
2022-11-13T20:49:36.054Z,99.9
2022-11-13T20:55:44.345Z,99.9
2022-11-13T20:57:46.018Z,99.9
2022-11-13T21:01:49.632Z,99.9
2022-11-13T21:03:51.057Z,99.9
2022-11-13T21:05:55.999Z,99.9
2022-11-13T21:07:57.726Z,99.9
2022-11-13T21:09:59.428Z,99.9
2022-11-13T21:16:04.444Z,99.9
2022-11-13T21:24:14.359Z,99.9
2022-11-13T21:28:20.999Z,99.9
2022-11-13T21:30:19.401Z,99.9
2022-11-13T21:32:21.079Z,99.9
2022-11-13T21:38:29.684Z,99.9
2022-11-13T21:39:31.785Z,99.9
2022-11-13T21:41:33.448Z,99.9
2022-11-13T21:43:35.109Z,99.9
2022-11-13T21:45:36.776Z,99.9
2022-11-13T21:47:41.689Z,99.9
2022-11-13T21:49:43.388Z,99.9
2022-11-13T21:51:45.029Z,99.9
2022-11-13T21:53:46.727Z,99.9
2022-11-13T21:55:48.383Z,99.9
2022-11-13T21:57:50.062Z,99.9
2022-11-13T21:59:51.716Z,99.9
2022-11-13T22:01:56.712Z,99.9
2022-11-13T22:03:58.271Z,99.9
2022-11-13T22:05:59.947Z,99.9
2022-11-13T22:08:03.171Z,99.9
2022-11-13T22:10:08.364Z,99.9
2022-11-13T22:12:06.466Z,99.9
2022-11-13T22:14:08.111Z,99.9
2022-11-13T22:16:13.031Z,99.9
2022-11-13T22:18:14.676Z,99.9
2022-11-13T22:20:16.381Z,99.9
2022-11-13T22:22:18.074Z,99.9
2022-11-13T22:24:19.683Z,99.9
2022-11-13T22:26:21.347Z,99.9
2022-11-13T22:30:27.908Z,99.9
2022-11-13T22:32:29.556Z,99.9
2022-11-13T22:34:31.196Z,99.9
2022-11-13T22:37:35.318Z,99.9
2022-11-13T22:41:38.627Z,99.9
2022-11-13T22:43:43.530Z,99.9
2022-11-13T22:45:45.195Z,99.9
2022-11-13T22:47:46.842Z,99.9
2022-11-13T22:49:48.506Z,99.9
2022-11-13T22:51:50.190Z,99.9
2022-11-13T22:53:51.809Z,99.9
2022-11-13T22:57:58.360Z,99.9
2022-11-13T23:00:00.048Z,99.9
2022-11-13T23:02:01.702Z,99.9
2022-11-13T23:04:03.366Z,99.9
2022-11-13T23:06:05.000Z,99.9
2022-11-13T23:08:06.662Z,99.9
2022-11-13T23:10:08.352Z,99.9
2022-11-13T23:12:13.252Z,99.9
2022-11-13T23:14:14.899Z,99.9
2022-11-13T23:16:16.532Z,99.9
2022-11-13T23:18:18.175Z,99.9
2022-11-13T23:20:19.833Z,99.9
2022-11-13T23:22:21.480Z,99.9
2022-11-13T23:24:23.175Z,99.9
2022-11-13T23:26:28.017Z,99.9
2022-11-13T23:28:29.962Z,99.9
2022-11-13T23:30:31.280Z,99.9
2022-11-13T23:35:37.010Z,99.9
2022-11-13T23:37:38.640Z,99.9
2022-11-13T23:39:43.525Z,99.9
2022-11-13T23:45:48.434Z,99.9
2022-11-13T23:47:50.077Z,99.9
2022-11-13T23:49:51.723Z,99.9
2022-11-13T23:51:53.342Z,99.9
2022-11-13T23:53:58.214Z,99.9
2022-11-13T23:55:59.880Z,99.9
2022-11-13T23:58:01.492Z,99.9
